createdAt,value
2017-06-05T00:02:04.516Z,16.80
2017-06-05T00:04:32.875Z,8.47
2017-06-05T00:07:01.257Z,8.03
2017-06-05T00:09:29.536Z,10.83
2017-06-05T00:11:57.929Z,7.13
2017-06-05T00:14:26.211Z,5.90
2017-06-05T00:16:54.584Z,5.73
2017-06-05T00:19:22.864Z,7.03
2017-06-05T00:21:51.184Z,5.70
2017-06-05T00:24:19.509Z,8.90
2017-06-05T00:26:47.887Z,6.13
2017-06-05T00:29:16.164Z,5.97
2017-06-05T00:31:44.439Z,5.87
2017-06-05T00:34:12.781Z,5.00
2017-06-05T00:36:41.158Z,5.83
2017-06-05T00:39:09.536Z,7.20
2017-06-05T00:41:37.805Z,5.40
2017-06-05T00:44:06.192Z,6.40
2017-06-05T00:46:34.453Z,8.30
2017-06-05T00:49:02.844Z,6.47
2017-06-05T00:51:31.123Z,5.53
2017-06-05T00:53:59.386Z,5.90
2017-06-05T00:56:27.669Z,5.20
2017-06-05T00:58:55.949Z,6.10
2017-06-05T01:01:24.226Z,6.37
2017-06-05T01:03:52.503Z,5.20
2017-06-05T01:06:20.786Z,5.73
2017-06-05T01:08:49.169Z,6.13
2017-06-05T01:11:17.437Z,6.47
2017-06-05T01:13:45.818Z,5.77
2017-06-05T01:16:14.076Z,5.77
2017-06-05T01:18:42.480Z,5.30
2017-06-05T01:21:10.729Z,5.03
2017-06-05T01:23:38.988Z,5.30
2017-06-05T01:26:07.284Z,5.97
2017-06-05T01:28:35.577Z,5.07
2017-06-05T01:31:03.966Z,8.27
2017-06-05T01:33:32.226Z,6.00
2017-06-05T01:36:00.518Z,6.47
2017-06-05T01:38:28.896Z,5.53
2017-06-05T01:40:57.165Z,5.90
2017-06-05T01:43:25.557Z,6.37
2017-06-05T01:45:53.825Z,5.83
2017-06-05T01:48:22.220Z,8.00
2017-06-05T01:50:50.490Z,5.60
2017-06-05T01:53:18.850Z,6.17
2017-06-05T01:55:47.144Z,5.33
2017-06-05T01:58:15.421Z,5.17
2017-06-05T02:00:43.795Z,6.90
2017-06-05T02:03:12.062Z,5.70
2017-06-05T02:05:40.456Z,6.00
2017-06-05T02:08:08.809Z,6.07
2017-06-05T02:10:37.130Z,6.13
2017-06-05T02:13:05.409Z,6.20
2017-06-05T02:15:33.677Z,7.00
2017-06-05T02:18:02.824Z,6.47
2017-06-05T02:20:31.115Z,6.47
2017-06-05T02:22:59.504Z,7.67
2017-06-05T02:25:27.782Z,6.73
2017-06-05T02:27:56.102Z,5.53
2017-06-05T02:30:24.362Z,5.40
2017-06-05T02:32:53.392Z,6.87
2017-06-05T02:35:21.707Z,6.60
2017-06-05T02:37:49.954Z,7.00
2017-06-05T02:40:18.257Z,6.27
2017-06-05T02:42:46.530Z,6.93
2017-06-05T02:45:14.909Z,8.33
2017-06-05T02:47:43.183Z,9.87
2017-06-05T02:50:11.496Z,7.27
2017-06-05T02:52:40.557Z,6.70
2017-06-05T02:55:08.832Z,8.43
2017-06-05T02:57:37.112Z,10.43
2017-06-05T03:00:05.501Z,10.17
2017-06-05T03:02:33.882Z,6.47
2017-06-05T03:05:02.157Z,6.77
2017-06-05T03:07:30.426Z,7.50
2017-06-05T03:09:58.710Z,6.27
2017-06-05T03:12:26.983Z,6.63
2017-06-05T03:14:55.286Z,6.93
2017-06-05T03:17:24.320Z,6.33
2017-06-05T03:19:52.641Z,6.60
2017-06-05T03:22:20.913Z,6.77
2017-06-05T03:24:49.185Z,6.50
2017-06-05T03:27:17.558Z,6.63
2017-06-05T03:29:45.938Z,7.03
2017-06-05T03:32:14.205Z,6.60
2017-06-05T03:34:42.468Z,6.87
2017-06-05T03:37:10.772Z,6.87
2017-06-05T03:39:39.049Z,6.17
2017-06-05T03:42:07.313Z,6.80
2017-06-05T03:44:35.710Z,6.77
2017-06-05T03:47:04.081Z,7.57
2017-06-05T03:49:32.357Z,6.87
2017-06-05T03:52:00.616Z,6.80
2017-06-05T03:54:29.017Z,6.47
2017-06-05T03:56:57.282Z,8.53
2017-06-05T03:59:25.575Z,5.70
2017-06-05T04:01:53.851Z,6.27
2017-06-05T04:04:22.111Z,7.63
2017-06-05T04:06:50.499Z,7.67
2017-06-05T04:09:18.780Z,6.20
2017-06-05T04:11:47.159Z,6.50
2017-06-05T04:14:15.437Z,6.47
2017-06-05T04:16:43.701Z,6.37
2017-06-05T04:19:12.107Z,7.70
2017-06-05T04:21:40.376Z,6.80
2017-06-05T04:24:08.663Z,11.00
2017-06-05T04:26:36.928Z,7.50
2017-06-05T04:29:05.302Z,7.77
2017-06-05T04:31:33.561Z,6.83
2017-06-05T04:34:01.859Z,9.20
2017-06-05T04:36:30.151Z,7.77
2017-06-05T04:38:58.402Z,7.30
2017-06-05T04:41:26.808Z,8.97
2017-06-05T04:43:55.066Z,9.43
2017-06-05T04:46:23.356Z,8.87
2017-06-05T04:48:51.620Z,6.17
2017-06-05T04:51:19.989Z,6.80
2017-06-05T04:53:48.272Z,6.77
2017-06-05T04:56:16.536Z,6.27
2017-06-05T04:58:44.933Z,6.30
2017-06-05T05:01:13.198Z,6.97
2017-06-05T05:03:41.584Z,6.70
2017-06-05T05:06:09.966Z,9.97
2017-06-05T05:08:38.230Z,7.03
2017-06-05T05:11:06.521Z,8.20
2017-06-05T05:13:34.779Z,6.07
2017-06-05T05:16:03.041Z,7.13
2017-06-05T05:18:31.366Z,7.83
2017-06-05T05:20:59.624Z,6.70
2017-06-05T05:23:28.004Z,5.63
2017-06-05T05:25:56.279Z,4.27
2017-06-05T05:28:24.572Z,6.47
2017-06-05T05:30:52.870Z,4.80
2017-06-05T05:33:21.943Z,6.10
2017-06-05T05:35:50.209Z,7.23
2017-06-05T05:38:18.484Z,5.97
2017-06-05T05:40:46.774Z,4.23
2017-06-05T05:43:15.041Z,4.33
2017-06-05T05:45:43.421Z,3.60
2017-06-05T05:48:11.700Z,5.33
2017-06-05T05:50:40.012Z,6.57
2017-06-05T05:53:08.385Z,4.63
2017-06-05T05:55:36.665Z,6.40
2017-06-05T05:58:05.040Z,2.97
2017-06-05T06:00:33.351Z,5.80
2017-06-05T06:03:02.523Z,2.90
2017-06-05T06:05:30.801Z,4.30
2017-06-05T06:07:59.073Z,5.57
2017-06-05T06:10:27.461Z,3.63
2017-06-05T06:12:55.744Z,4.70
2017-06-05T06:15:24.119Z,2.57
2017-06-05T06:17:52.377Z,4.27
2017-06-05T06:20:21.453Z,3.77
2017-06-05T06:22:49.716Z,6.03
2017-06-05T06:25:18.043Z,3.93
2017-06-05T06:27:46.318Z,6.90
2017-06-05T06:30:14.684Z,7.17
2017-06-05T06:32:43.173Z,3.00
2017-06-05T06:35:11.458Z,2.60
2017-06-05T06:37:39.745Z,3.37
2017-06-05T06:40:07.997Z,4.97
2017-06-05T06:42:36.279Z,5.63
2017-06-05T06:45:04.607Z,4.53
2017-06-05T06:47:32.866Z,2.50
2017-06-05T06:50:04.605Z,3.87
2017-06-05T06:52:32.892Z,6.50
2017-06-05T06:55:01.198Z,4.30
2017-06-05T06:57:29.478Z,5.63
2017-06-05T06:59:57.753Z,5.40
2017-06-05T07:02:26.234Z,5.80
2017-06-05T07:04:54.504Z,2.27
2017-06-05T07:07:22.891Z,7.33
2017-06-05T07:09:51.156Z,3.07
2017-06-05T07:12:19.464Z,6.13
2017-06-05T07:14:48.515Z,2.10
2017-06-05T07:17:16.827Z,4.13
2017-06-05T07:19:45.254Z,4.70
2017-06-05T07:22:13.587Z,4.40
2017-06-05T07:24:41.935Z,3.57
2017-06-05T07:27:10.211Z,4.47
2017-06-05T07:29:38.508Z,6.20
2017-06-05T07:32:06.798Z,2.80
2017-06-05T07:34:35.170Z,3.20
2017-06-05T07:37:03.537Z,4.47
2017-06-05T07:39:31.810Z,3.03
2017-06-05T07:42:00.202Z,2.87
2017-06-05T07:44:28.470Z,3.00
2017-06-05T07:46:56.726Z,5.03
2017-06-05T07:49:25.028Z,5.80
2017-06-05T07:51:53.318Z,3.03
2017-06-05T07:54:21.598Z,6.43
2017-06-05T07:56:49.869Z,3.63
2017-06-05T07:59:18.477Z,2.47
2017-06-05T08:01:47.124Z,4.73
2017-06-05T08:04:15.514Z,3.63
2017-06-05T08:06:43.795Z,5.33
2017-06-05T08:09:12.069Z,4.73
2017-06-05T08:11:40.353Z,5.30
2017-06-05T08:14:08.614Z,2.93
2017-06-05T08:16:37.004Z,3.60
2017-06-05T08:19:05.279Z,3.80
2017-06-05T08:21:33.567Z,4.37
2017-06-05T08:24:01.929Z,4.00
2017-06-05T08:26:30.190Z,2.20
2017-06-05T08:28:58.496Z,2.83
2017-06-05T08:31:26.748Z,4.20
2017-06-05T08:33:55.057Z,3.53
2017-06-05T08:36:24.090Z,3.37
2017-06-05T08:38:52.407Z,7.40
2017-06-05T08:41:20.790Z,3.60
2017-06-05T08:43:49.069Z,3.93
2017-06-05T08:46:17.451Z,4.23
2017-06-05T08:48:45.816Z,4.27
2017-06-05T08:51:14.095Z,5.07
2017-06-05T08:53:42.359Z,6.63
2017-06-05T08:56:10.665Z,3.97
2017-06-05T08:58:38.929Z,3.13
2017-06-05T09:01:07.251Z,5.90
2017-06-05T09:03:35.588Z,5.37
2017-06-05T09:06:03.864Z,4.13
2017-06-05T09:08:32.152Z,3.40
2017-06-05T09:11:00.410Z,4.00
2017-06-05T09:13:28.698Z,2.90
2017-06-05T09:15:57.073Z,3.73
2017-06-05T09:18:25.452Z,4.80
2017-06-05T09:20:53.729Z,3.70
2017-06-05T09:23:22.018Z,6.40
2017-06-05T09:25:50.283Z,4.60
2017-06-05T09:28:18.584Z,5.93
2017-06-05T09:30:47.655Z,4.67
2017-06-05T09:33:15.911Z,3.90
2017-06-05T09:35:44.206Z,3.67
2017-06-05T09:38:12.484Z,3.93
2017-06-05T09:40:40.967Z,3.53
2017-06-05T09:43:09.214Z,4.37
2017-06-05T09:45:37.542Z,3.07
2017-06-05T09:48:05.917Z,3.53
2017-06-05T09:50:34.193Z,6.03
2017-06-05T09:53:02.452Z,5.50
2017-06-05T09:55:30.730Z,5.33
2017-06-05T09:57:59.001Z,4.40
2017-06-05T10:00:27.287Z,5.43
2017-06-05T10:02:55.559Z,4.50
2017-06-05T10:05:23.942Z,4.73
2017-06-05T10:07:52.316Z,3.37
2017-06-05T10:10:20.696Z,3.30
2017-06-05T10:12:49.064Z,6.47
2017-06-05T10:15:17.362Z,3.53
2017-06-05T10:17:45.718Z,5.70
2017-06-05T10:20:13.972Z,5.40
2017-06-05T10:22:42.281Z,4.63
2017-06-05T10:25:10.540Z,4.83
2017-06-05T10:27:38.940Z,3.93
2017-06-05T10:30:07.218Z,3.67
2017-06-05T10:32:35.597Z,4.73
2017-06-05T10:35:03.963Z,3.37
2017-06-05T10:37:32.560Z,3.40
2017-06-05T10:40:00.883Z,4.00
2017-06-05T10:42:29.165Z,5.73
2017-06-05T10:44:58.193Z,4.70
2017-06-05T10:47:27.236Z,4.47
2017-06-05T10:49:56.114Z,3.30
2017-06-05T10:52:24.422Z,6.30
2017-06-05T10:54:53.482Z,4.03
2017-06-05T10:57:21.741Z,3.23
2017-06-05T10:59:50.049Z,3.80
2017-06-05T11:02:18.323Z,4.90
2017-06-05T11:04:46.701Z,4.83
2017-06-05T11:07:14.971Z,3.93
2017-06-05T11:09:43.310Z,3.60
2017-06-05T11:12:12.398Z,3.67
2017-06-05T11:14:40.761Z,3.60
2017-06-05T11:17:09.137Z,2.80
2017-06-05T11:19:37.405Z,3.47
2017-06-05T11:22:05.699Z,3.67
2017-06-05T11:24:34.020Z,4.53
2017-06-05T11:27:02.375Z,3.20
2017-06-05T11:29:30.636Z,3.30
2017-06-05T11:31:59.016Z,4.30
2017-06-05T11:34:27.278Z,7.27
2017-06-05T11:36:56.357Z,3.53
2017-06-05T11:39:24.617Z,3.50
2017-06-05T11:41:52.936Z,3.87
2017-06-05T11:44:21.238Z,3.50
2017-06-05T11:46:49.530Z,4.37
2017-06-05T11:49:18.558Z,3.97
2017-06-05T11:51:47.844Z,4.27
2017-06-05T11:54:16.190Z,5.70
2017-06-05T11:56:45.274Z,5.50
2017-06-05T11:59:13.557Z,5.50
2017-06-05T12:01:41.823Z,3.83
2017-06-05T12:04:10.211Z,4.27
2017-06-05T12:06:38.465Z,3.50
2017-06-05T12:09:06.758Z,5.03
2017-06-05T12:11:35.021Z,4.40
2017-06-05T12:14:03.297Z,6.67
2017-06-05T12:16:31.577Z,6.23
2017-06-05T12:19:00.562Z,3.90
2017-06-05T12:21:28.926Z,8.33
2017-06-05T12:23:57.296Z,5.37
2017-06-05T12:26:25.586Z,4.20
2017-06-05T12:28:54.056Z,4.60
2017-06-05T12:31:22.340Z,4.80
2017-06-05T12:33:50.712Z,4.27
2017-06-05T12:36:18.977Z,4.50
2017-06-05T12:38:47.286Z,4.03
2017-06-05T12:41:15.673Z,6.43
2017-06-05T12:43:43.920Z,5.80
2017-06-05T12:46:12.344Z,6.33
2017-06-05T12:48:41.367Z,4.10
2017-06-05T12:51:09.669Z,4.43
2017-06-05T12:53:37.931Z,4.20
2017-06-05T12:56:06.205Z,5.70
2017-06-05T12:58:34.504Z,5.57
2017-06-05T13:01:02.890Z,6.60
2017-06-05T13:03:31.180Z,4.93
2017-06-05T13:05:59.553Z,10.60
2017-06-05T13:08:27.877Z,4.33
2017-06-05T13:10:56.260Z,4.10
2017-06-05T13:13:24.545Z,4.10
2017-06-05T13:15:52.908Z,4.03
2017-06-05T13:18:21.178Z,4.40
2017-06-05T13:20:49.563Z,5.00
2017-06-05T13:23:17.828Z,3.80
2017-06-05T13:25:46.213Z,4.80
2017-06-05T13:28:14.482Z,4.13
2017-06-05T13:30:42.745Z,6.13
2017-06-05T13:33:11.045Z,4.70
2017-06-05T13:35:39.313Z,6.27
2017-06-05T13:38:07.803Z,7.57
2017-06-05T13:40:36.057Z,13.80
2017-06-05T13:43:04.353Z,11.23
2017-06-05T13:45:32.625Z,4.07
2017-06-05T13:48:00.911Z,7.43
2017-06-05T13:50:29.173Z,6.00
2017-06-05T13:52:57.473Z,7.43
2017-06-05T13:55:25.728Z,4.47
2017-06-05T13:57:54.043Z,4.50
2017-06-05T14:00:22.399Z,4.70
2017-06-05T14:02:50.652Z,4.93
2017-06-05T14:05:18.946Z,7.87
2017-06-05T14:07:47.219Z,4.23
2017-06-05T14:10:15.610Z,4.50
2017-06-05T14:12:43.880Z,5.43
2017-06-05T14:15:12.248Z,6.20
2017-06-05T14:17:40.550Z,4.80
2017-06-05T14:20:08.837Z,4.97
2017-06-05T14:22:37.883Z,5.73
2017-06-05T14:25:06.188Z,13.70
2017-06-05T14:27:34.470Z,4.10
2017-06-05T14:30:02.770Z,5.43
2017-06-05T14:32:31.032Z,4.47
2017-06-05T14:34:59.370Z,4.13
2017-06-05T14:37:27.751Z,6.10
2017-06-05T14:39:56.049Z,4.20
2017-06-05T14:42:25.112Z,3.83
2017-06-05T14:44:53.381Z,6.03
2017-06-05T14:47:21.768Z,4.60
2017-06-05T14:49:50.044Z,4.00
2017-06-05T14:52:18.426Z,4.67
2017-06-05T14:54:46.706Z,4.13
2017-06-05T14:57:15.095Z,4.10
2017-06-05T14:59:43.354Z,6.23
2017-06-05T15:02:11.631Z,5.53
2017-06-05T15:04:39.905Z,4.13
2017-06-05T15:07:08.203Z,3.67
2017-06-05T15:09:36.561Z,7.40
2017-06-05T15:12:04.853Z,6.40
2017-06-05T15:14:33.140Z,4.73
2017-06-05T15:17:01.408Z,6.10
2017-06-05T15:19:29.709Z,6.50
2017-06-05T15:21:58.740Z,5.40
2017-06-05T15:24:27.058Z,4.13
2017-06-05T15:26:55.454Z,8.37
2017-06-05T15:29:23.716Z,5.40
2017-06-05T15:31:51.998Z,4.60
2017-06-05T15:34:20.357Z,4.47
2017-06-05T15:36:48.749Z,7.20
2017-06-05T15:39:17.000Z,5.03
2017-06-05T15:41:45.408Z,7.30
2017-06-05T15:44:13.660Z,6.00
2017-06-05T15:46:41.956Z,5.97
2017-06-05T15:49:10.252Z,4.67
2017-06-05T15:51:39.299Z,6.20
2017-06-05T15:54:07.589Z,4.93
2017-06-05T15:56:35.882Z,6.00
2017-06-05T15:59:04.168Z,5.60
2017-06-05T16:01:33.221Z,5.77
2017-06-05T16:04:01.531Z,5.00
2017-06-05T16:06:29.894Z,5.23
2017-06-05T16:08:58.276Z,4.30
2017-06-05T16:11:26.552Z,7.83
2017-06-05T16:13:54.809Z,4.83
2017-06-05T16:16:23.155Z,4.73
2017-06-05T16:18:52.176Z,4.20
2017-06-05T16:21:20.501Z,5.63
2017-06-05T16:23:48.766Z,7.10
2017-06-05T16:26:17.053Z,5.17
2017-06-05T16:28:45.315Z,5.60
2017-06-05T16:31:13.632Z,7.03
2017-06-05T16:33:42.698Z,8.33
2017-06-05T16:36:11.086Z,6.50
2017-06-05T16:38:39.366Z,8.53
2017-06-05T16:41:08.400Z,7.77
2017-06-05T16:43:37.448Z,7.00
2017-06-05T16:46:05.723Z,10.07
2017-06-05T16:48:34.099Z,11.83
2017-06-05T16:51:02.473Z,14.47
2017-06-05T16:53:30.846Z,19.13
2017-06-05T16:55:59.112Z,17.00
2017-06-05T16:58:27.434Z,25.83
2017-06-05T17:00:56.477Z,19.10
2017-06-05T17:03:25.590Z,19.20
2017-06-05T17:05:53.976Z,21.13
2017-06-05T17:08:22.346Z,19.20
2017-06-05T17:10:50.725Z,17.63
2017-06-05T17:13:19.011Z,18.53
2017-06-05T17:15:47.289Z,19.53
2017-06-05T17:18:15.580Z,20.30
2017-06-05T17:20:43.885Z,20.90
2017-06-05T17:23:12.233Z,23.07
2017-06-05T17:25:40.700Z,25.20
2017-06-05T17:28:09.081Z,23.40
2017-06-05T17:30:37.466Z,24.13
2017-06-05T17:33:05.741Z,21.47
2017-06-05T17:35:34.154Z,22.47
2017-06-05T17:38:03.181Z,22.97
2017-06-05T17:40:31.625Z,22.00
2017-06-05T17:42:59.971Z,21.53
2017-06-05T17:45:29.169Z,24.00
2017-06-05T17:47:57.497Z,20.80
2017-06-05T17:50:25.884Z,21.10
2017-06-05T17:52:54.178Z,20.53
2017-06-05T17:55:22.540Z,17.27
2017-06-05T17:57:50.843Z,19.43
2017-06-05T18:00:19.890Z,21.77
2017-06-05T18:02:48.307Z,21.60
2017-06-05T18:05:16.588Z,21.57
2017-06-05T18:07:45.645Z,20.57
2017-06-05T18:10:13.952Z,19.47
2017-06-05T18:12:42.342Z,22.50
2017-06-05T18:15:10.672Z,22.27
2017-06-05T18:17:38.944Z,20.53
2017-06-05T18:20:07.228Z,21.67
2017-06-05T18:22:35.504Z,22.00
2017-06-05T18:25:03.814Z,21.37
2017-06-05T18:27:32.885Z,20.17
2017-06-05T18:30:01.257Z,19.17
2017-06-05T18:32:29.528Z,19.87
2017-06-05T18:34:57.824Z,21.87
2017-06-05T18:37:26.189Z,20.87
2017-06-05T18:39:54.569Z,21.23
2017-06-05T18:42:22.946Z,22.23
2017-06-05T18:44:51.241Z,20.40
2017-06-05T18:47:19.571Z,20.30
2017-06-05T18:49:47.875Z,17.73
2017-06-05T18:52:16.141Z,18.50
2017-06-05T18:54:44.430Z,18.47
2017-06-05T18:57:12.698Z,19.23
2017-06-05T18:59:41.088Z,21.17
2017-06-05T19:02:09.451Z,19.23
2017-06-05T19:04:37.769Z,19.73
2017-06-05T19:07:06.886Z,19.27
2017-06-05T19:09:35.188Z,19.03
2017-06-05T19:12:03.517Z,17.37
2017-06-05T19:14:31.894Z,16.63
2017-06-05T19:17:00.254Z,18.30
2017-06-05T19:19:28.554Z,14.37
2017-06-05T19:21:56.856Z,17.00
2017-06-05T19:24:25.193Z,14.47
2017-06-05T19:26:53.475Z,15.43
2017-06-05T19:29:21.772Z,16.37
2017-06-05T19:31:50.821Z,15.30
2017-06-05T19:34:19.230Z,15.40
2017-06-05T19:36:47.512Z,15.67
2017-06-05T19:39:16.581Z,17.10
2017-06-05T19:41:44.869Z,17.97
2017-06-05T19:44:13.253Z,17.33
2017-06-05T19:46:41.554Z,16.23
2017-06-05T19:49:10.619Z,17.60
2017-06-05T19:51:38.913Z,14.80
2017-06-05T19:54:07.974Z,17.33
2017-06-05T19:56:36.402Z,17.70
2017-06-05T19:59:05.469Z,15.73
2017-06-05T20:01:33.853Z,15.40
2017-06-05T20:04:02.227Z,16.00
2017-06-05T20:06:30.609Z,14.60
2017-06-05T20:08:58.987Z,13.47
2017-06-05T20:11:27.368Z,14.53
2017-06-05T20:13:55.657Z,14.93
2017-06-05T20:16:24.193Z,16.03
2017-06-05T20:18:52.513Z,14.33
2017-06-05T20:21:22.387Z,14.77
2017-06-05T20:23:50.664Z,13.97
2017-06-05T20:26:19.086Z,15.70
2017-06-05T20:28:47.374Z,15.33
2017-06-05T20:31:15.673Z,16.77
2017-06-05T20:33:43.975Z,16.87
2017-06-05T20:36:12.382Z,15.03
2017-06-05T20:38:40.664Z,15.73
2017-06-05T20:41:08.980Z,16.43
2017-06-05T20:43:37.323Z,16.60
2017-06-05T20:46:05.688Z,17.67
2017-06-05T20:48:34.752Z,17.50
2017-06-05T20:51:03.118Z,18.30
2017-06-05T20:53:31.516Z,19.87
2017-06-05T20:55:59.807Z,20.60
2017-06-05T20:58:28.180Z,20.23
2017-06-05T21:00:57.270Z,21.23
2017-06-05T21:03:25.564Z,24.50
2017-06-05T21:05:53.950Z,20.10
2017-06-05T21:08:22.355Z,20.93
2017-06-05T21:10:50.686Z,20.37
2017-06-05T21:13:18.965Z,20.90
2017-06-05T21:15:47.245Z,19.87
2017-06-05T21:18:15.720Z,21.20
2017-06-05T21:20:43.985Z,20.00
2017-06-05T21:23:12.252Z,22.03
2017-06-05T21:25:40.659Z,21.90
2017-06-05T21:28:08.956Z,20.53
2017-06-05T21:30:38.028Z,22.40
2017-06-05T21:33:06.414Z,24.17
2017-06-05T21:35:34.849Z,23.23
2017-06-05T21:38:03.142Z,24.77
2017-06-05T21:40:31.510Z,23.13
2017-06-05T21:42:59.786Z,21.90
2017-06-05T21:45:28.176Z,22.63
2017-06-05T21:47:56.550Z,26.60
2017-06-05T21:50:24.918Z,33.57
2017-06-05T21:52:53.995Z,37.07
2017-06-05T21:55:22.366Z,26.60
2017-06-05T21:57:50.680Z,25.40
2017-06-05T22:00:19.022Z,24.87
2017-06-05T22:02:47.349Z,24.00
2017-06-05T22:05:15.684Z,25.70
2017-06-05T22:07:43.995Z,24.67
2017-06-05T22:10:12.337Z,29.23
2017-06-05T22:12:40.718Z,25.13
2017-06-05T22:15:08.991Z,23.90
2017-06-05T22:17:37.346Z,23.70
2017-06-05T22:20:05.701Z,23.10
2017-06-05T22:22:34.773Z,24.17
2017-06-05T22:25:03.145Z,23.43
2017-06-05T22:27:31.518Z,21.93
2017-06-05T22:30:00.558Z,21.57
2017-06-05T22:32:29.638Z,24.37
2017-06-05T22:34:57.908Z,24.27
2017-06-05T22:37:26.293Z,31.63
2017-06-05T22:39:54.646Z,24.80
2017-06-05T22:42:23.682Z,24.50
2017-06-05T22:44:51.972Z,24.90
2017-06-05T22:47:20.269Z,24.73
2017-06-05T22:49:48.552Z,23.40
2017-06-05T22:52:16.931Z,29.37
2017-06-05T22:54:45.310Z,24.90
2017-06-05T22:57:13.679Z,22.73
2017-06-05T22:59:41.964Z,23.10
2017-06-05T23:02:10.339Z,22.00
2017-06-05T23:04:38.769Z,21.40
2017-06-05T23:07:07.574Z,20.20
2017-06-05T23:09:35.953Z,22.10
2017-06-05T23:12:04.332Z,20.80
2017-06-05T23:14:32.644Z,20.87
2017-06-05T23:17:00.924Z,20.70
2017-06-05T23:19:29.956Z,20.90
2017-06-05T23:21:58.258Z,21.00
2017-06-05T23:24:26.532Z,20.97
2017-06-05T23:26:54.829Z,21.70
2017-06-05T23:29:23.100Z,21.43
2017-06-05T23:31:51.401Z,21.87
2017-06-05T23:34:20.473Z,21.20
2017-06-05T23:36:48.770Z,24.00
2017-06-05T23:39:17.838Z,42.53
2017-06-05T23:41:46.219Z,29.07
2017-06-05T23:44:14.492Z,23.50
2017-06-05T23:46:42.800Z,23.07
2017-06-05T23:49:11.837Z,22.77
2017-06-05T23:51:40.158Z,19.00
2017-06-05T23:54:08.425Z,21.50
2017-06-05T23:56:36.803Z,20.63
2017-06-05T23:59:05.077Z,21.97
